sensor_id;sensor_type;location;lat;lon;timestamp;P1;durP1;ratioP1;P2;durP2;ratioP2
33206;SDS011;19565;46.602;11.534;2022-08-01T00:00:10;17.38;;;16.48;;
33206;SDS011;19565;46.602;11.534;2022-08-01T00:02:39;16.58;;;15.77;;
33206;SDS011;19565;46.602;11.534;2022-08-01T00:05:08;16.80;;;16.00;;
33206;SDS011;19565;46.602;11.534;2022-08-01T00:07:37;17.02;;;16.13;;
33206;SDS011;19565;46.602;11.534;2022-08-01T00:10:06;16.85;;;16.05;;
33206;SDS011;19565;46.602;11.534;2022-08-01T00:12:36;17.52;;;16.63;;
33206;SDS011;19565;46.602;11.534;2022-08-01T00:15:05;16.45;;;15.65;;
33206;SDS011;19565;46.602;11.534;2022-08-01T00:17:36;17.02;;;16.23;;
33206;SDS011;19565;46.602;11.534;2022-08-01T00:20:05;17.80;;;16.90;;
33206;SDS011;19565;46.602;11.534;2022-08-01T00:22:35;17.00;;;16.10;;
33206;SDS011;19565;46.602;11.534;2022-08-01T00:25:04;16.90;;;16.10;;
33206;SDS011;19565;46.602;11.534;2022-08-01T00:27:33;17.00;;;16.20;;
33206;SDS011;19565;46.602;11.534;2022-08-01T00:30:03;17.05;;;16.20;;
33206;SDS011;19565;46.602;11.534;2022-08-01T00:32:41;16.27;;;15.48;;
33206;SDS011;19565;46.602;11.534;2022-08-01T00:35:09;16.60;;;15.80;;
33206;SDS011;19565;46.602;11.534;2022-08-01T00:37:37;17.05;;;16.15;;
33206;SDS011;19565;46.602;11.534;2022-08-01T00:40:06;16.42;;;15.63;;
33206;SDS011;19565;46.602;11.534;2022-08-01T00:42:35;16.98;;;16.08;;
33206;SDS011;19565;46.602;11.534;2022-08-01T00:45:09;17.42;;;16.42;;
33206;SDS011;19565;46.602;11.534;2022-08-01T00:47:37;16.73;;;15.82;;
33206;SDS011;19565;46.602;11.534;2022-08-01T00:50:07;16.67;;;15.88;;
33206;SDS011;19565;46.602;11.534;2022-08-01T00:52:36;17.50;;;16.60;;
33206;SDS011;19565;46.602;11.534;2022-08-01T00:55:07;17.08;;;16.17;;
33206;SDS011;19565;46.602;11.534;2022-08-01T00:57:40;16.88;;;15.98;;
33206;SDS011;19565;46.602;11.534;2022-08-01T01:00:28;16.20;;;15.40;;
33206;SDS011;19565;46.602;11.534;2022-08-01T01:03:00;16.60;;;15.80;;
33206;SDS011;19565;46.602;11.534;2022-08-01T01:05:29;17.20;;;16.20;;
33206;SDS011;19565;46.602;11.534;2022-08-01T01:08:04;17.40;;;16.45;;
33206;SDS011;19565;46.602;11.534;2022-08-01T01:10:36;17.33;;;16.50;;
33206;SDS011;19565;46.602;11.534;2022-08-01T01:13:11;16.65;;;15.85;;
33206;SDS011;19565;46.602;11.534;2022-08-01T01:15:45;16.55;;;15.75;;
33206;SDS011;19565;46.602;11.534;2022-08-01T01:18:17;17.45;;;16.45;;
33206;SDS011;19565;46.602;11.534;2022-08-01T01:20:51;15.27;;;14.48;;
33206;SDS011;19565;46.602;11.534;2022-08-01T01:23:29;15.30;;;14.50;;
33206;SDS011;19565;46.602;11.534;2022-08-01T01:26:28;16.08;;;15.27;;
33206;SDS011;19565;46.602;11.534;2022-08-01T01:29:10;16.45;;;15.57;;
33206;SDS011;19565;46.602;11.534;2022-08-01T01:31:44;15.80;;;14.90;;
33206;SDS011;19565;46.602;11.534;2022-08-01T01:34:17;15.85;;;14.95;;
33206;SDS011;19565;46.602;11.534;2022-08-01T01:36:48;16.45;;;15.60;;
33206;SDS011;19565;46.602;11.534;2022-08-01T01:39:18;16.35;;;15.25;;
33206;SDS011;19565;46.602;11.534;2022-08-01T01:41:49;15.20;;;14.38;;
33206;SDS011;19565;46.602;11.534;2022-08-01T01:44:20;15.32;;;14.52;;
33206;SDS011;19565;46.602;11.534;2022-08-01T01:46:48;15.85;;;15.05;;
33206;SDS011;19565;46.602;11.534;2022-08-01T01:49:19;15.20;;;14.40;;
33206;SDS011;19565;46.602;11.534;2022-08-01T01:51:49;14.55;;;13.75;;
33206;SDS011;19565;46.602;11.534;2022-08-01T01:54:28;13.93;;;13.23;;
33206;SDS011;19565;46.602;11.534;2022-08-01T01:57:00;13.50;;;12.80;;
33206;SDS011;19565;46.602;11.534;2022-08-01T01:59:32;13.15;;;12.45;;
33206;SDS011;19565;46.602;11.534;2022-08-01T02:02:04;12.57;;;11.88;;
33206;SDS011;19565;46.602;11.534;2022-08-01T02:04:35;13.70;;;13.00;;
33206;SDS011;19565;46.602;11.534;2022-08-01T02:07:09;13.52;;;12.82;;
33206;SDS011;19565;46.602;11.534;2022-08-01T02:09:40;17.10;;;13.55;;
33206;SDS011;19565;46.602;11.534;2022-08-01T02:12:10;13.30;;;12.60;;
33206;SDS011;19565;46.602;11.534;2022-08-01T02:14:41;13.02;;;12.32;;
33206;SDS011;19565;46.602;11.534;2022-08-01T02:17:12;14.20;;;13.43;;
33206;SDS011;19565;46.602;11.534;2022-08-01T02:19:43;15.95;;;14.95;;
33206;SDS011;19565;46.602;11.534;2022-08-01T02:22:14;13.82;;;13.02;;
33206;SDS011;19565;46.602;11.534;2022-08-01T02:24:49;13.40;;;12.70;;
33206;SDS011;19565;46.602;11.534;2022-08-01T02:27:23;13.85;;;13.15;;
33206;SDS011;19565;46.602;11.534;2022-08-01T02:29:58;13.80;;;13.10;;
33206;SDS011;19565;46.602;11.534;2022-08-01T02:32:30;14.02;;;13.32;;
33206;SDS011;19565;46.602;11.534;2022-08-01T02:34:59;15.00;;;14.20;;
33206;SDS011;19565;46.602;11.534;2022-08-01T02:37:30;14.30;;;13.60;;
33206;SDS011;19565;46.602;11.534;2022-08-01T02:40:02;13.57;;;12.88;;
33206;SDS011;19565;46.602;11.534;2022-08-01T02:42:34;13.85;;;13.10;;
33206;SDS011;19565;46.602;11.534;2022-08-01T02:45:06;13.25;;;12.55;;
33206;SDS011;19565;46.602;11.534;2022-08-01T02:47:36;13.30;;;12.45;;
33206;SDS011;19565;46.602;11.534;2022-08-01T02:50:08;14.32;;;13.52;;
33206;SDS011;19565;46.602;11.534;2022-08-01T02:52:39;13.70;;;12.90;;
33206;SDS011;19565;46.602;11.534;2022-08-01T02:55:09;14.50;;;13.43;;
33206;SDS011;19565;46.602;11.534;2022-08-01T02:57:38;12.40;;;11.70;;
33206;SDS011;19565;46.602;11.534;2022-08-01T03:00:19;13.05;;;12.35;;
33206;SDS011;19565;46.602;11.534;2022-08-01T03:02:50;13.40;;;12.70;;
33206;SDS011;19565;46.602;11.534;2022-08-01T03:05:21;12.43;;;11.73;;
33206;SDS011;19565;46.602;11.534;2022-08-01T03:07:51;12.57;;;11.88;;
33206;SDS011;19565;46.602;11.534;2022-08-01T03:10:28;11.60;;;11.00;;
33206;SDS011;19565;46.602;11.534;2022-08-01T03:12:57;12.70;;;12.00;;
33206;SDS011;19565;46.602;11.534;2022-08-01T03:15:29;12.82;;;12.13;;
33206;SDS011;19565;46.602;11.534;2022-08-01T03:18:00;12.70;;;12.00;;
33206;SDS011;19565;46.602;11.534;2022-08-01T03:20:30;12.80;;;12.10;;
33206;SDS011;19565;46.602;11.534;2022-08-01T03:23:01;12.45;;;11.80;;
33206;SDS011;19565;46.602;11.534;2022-08-01T03:25:32;12.60;;;11.90;;
33206;SDS011;19565;46.602;11.534;2022-08-01T03:28:04;12.82;;;12.07;;
33206;SDS011;19565;46.602;11.534;2022-08-01T03:30:35;11.82;;;11.23;;
33206;SDS011;19565;46.602;11.534;2022-08-01T03:33:07;12.52;;;11.82;;
33206;SDS011;19565;46.602;11.534;2022-08-01T03:35:52;11.20;;;10.60;;
33206;SDS011;19565;46.602;11.534;2022-08-01T03:38:22;11.13;;;10.48;;
33206;SDS011;19565;46.602;11.534;2022-08-01T03:40:53;11.93;;;11.23;;
33206;SDS011;19565;46.602;11.534;2022-08-01T03:43:26;11.82;;;11.13;;
33206;SDS011;19565;46.602;11.534;2022-08-01T03:46:00;12.15;;;11.40;;
33206;SDS011;19565;46.602;11.534;2022-08-01T03:48:35;12.32;;;11.43;;
33206;SDS011;19565;46.602;11.534;2022-08-01T03:51:08;11.35;;;10.75;;
33206;SDS011;19565;46.602;11.534;2022-08-01T03:53:37;11.30;;;10.65;;
33206;SDS011;19565;46.602;11.534;2022-08-01T03:56:10;9.15;;;8.65;;
33206;SDS011;19565;46.602;11.534;2022-08-01T03:58:40;8.88;;;8.27;;
33206;SDS011;19565;46.602;11.534;2022-08-01T04:01:17;9.18;;;8.57;;
33206;SDS011;19565;46.602;11.534;2022-08-01T04:03:45;7.95;;;7.45;;
33206;SDS011;19565;46.602;11.534;2022-08-01T04:06:14;8.57;;;8.07;;
33206;SDS011;19565;46.602;11.534;2022-08-01T04:08:43;8.10;;;7.60;;
33206;SDS011;19565;46.602;11.534;2022-08-01T04:11:22;6.85;;;6.45;;
33206;SDS011;19565;46.602;11.534;2022-08-01T04:13:52;8.05;;;7.45;;
33206;SDS011;19565;46.602;11.534;2022-08-01T04:16:22;7.50;;;7.00;;
33206;SDS011;19565;46.602;11.534;2022-08-01T04:18:50;7.50;;;7.05;;
33206;SDS011;19565;46.602;11.534;2022-08-01T04:21:20;8.82;;;8.30;;
33206;SDS011;19565;46.602;11.534;2022-08-01T04:23:51;9.38;;;8.77;;
33206;SDS011;19565;46.602;11.534;2022-08-01T04:26:23;8.95;;;8.45;;
33206;SDS011;19565;46.602;11.534;2022-08-01T04:28:53;10.70;;;10.10;;
33206;SDS011;19565;46.602;11.534;2022-08-01T04:31:24;10.00;;;9.40;;
33206;SDS011;19565;46.602;11.534;2022-08-01T04:33:55;10.80;;;10.10;;
33206;SDS011;19565;46.602;11.534;2022-08-01T04:36:25;10.10;;;9.50;;
33206;SDS011;19565;46.602;11.534;2022-08-01T04:38:57;10.00;;;9.40;;
33206;SDS011;19565;46.602;11.534;2022-08-01T04:41:29;8.88;;;8.38;;
33206;SDS011;19565;46.602;11.534;2022-08-01T04:43:58;9.02;;;8.32;;
33206;SDS011;19565;46.602;11.534;2022-08-01T04:46:28;9.85;;;8.88;;
33206;SDS011;19565;46.602;11.534;2022-08-01T04:48:57;9.57;;;8.98;;
33206;SDS011;19565;46.602;11.534;2022-08-01T04:51:26;10.43;;;9.82;;
33206;SDS011;19565;46.602;11.534;2022-08-01T04:53:55;10.63;;;9.90;;
33206;SDS011;19565;46.602;11.534;2022-08-01T04:56:24;10.20;;;9.60;;
33206;SDS011;19565;46.602;11.534;2022-08-01T04:58:52;10.27;;;9.68;;
33206;SDS011;19565;46.602;11.534;2022-08-01T05:01:35;10.60;;;10.00;;
33206;SDS011;19565;46.602;11.534;2022-08-01T05:04:03;11.55;;;10.90;;
33206;SDS011;19565;46.602;11.534;2022-08-01T05:06:32;11.32;;;10.68;;
33206;SDS011;19565;46.602;11.534;2022-08-01T05:09:00;11.75;;;11.05;;
33206;SDS011;19565;46.602;11.534;2022-08-01T05:11:28;13.45;;;12.65;;
33206;SDS011;19565;46.602;11.534;2022-08-01T05:13:56;13.00;;;12.20;;
33206;SDS011;19565;46.602;11.534;2022-08-01T05:16:25;11.77;;;11.07;;
33206;SDS011;19565;46.602;11.534;2022-08-01T05:18:54;13.35;;;12.57;;
33206;SDS011;19565;46.602;11.534;2022-08-01T05:21:23;13.63;;;12.85;;
33206;SDS011;19565;46.602;11.534;2022-08-01T05:23:51;14.70;;;14.00;;
33206;SDS011;19565;46.602;11.534;2022-08-01T05:26:19;15.35;;;14.55;;
33206;SDS011;19565;46.602;11.534;2022-08-01T05:28:47;14.52;;;13.77;;
33206;SDS011;19565;46.602;11.534;2022-08-01T05:31:15;15.70;;;14.90;;
33206;SDS011;19565;46.602;11.534;2022-08-01T05:33:43;16.27;;;15.48;;
33206;SDS011;19565;46.602;11.534;2022-08-01T05:36:13;16.63;;;15.82;;
33206;SDS011;19565;46.602;11.534;2022-08-01T05:38:41;13.43;;;12.73;;
33206;SDS011;19565;46.602;11.534;2022-08-01T05:41:09;12.65;;;11.95;;
33206;SDS011;19565;46.602;11.534;2022-08-01T05:43:37;12.57;;;11.30;;
33206;SDS011;19565;46.602;11.534;2022-08-01T05:46:05;10.82;;;10.13;;
33206;SDS011;19565;46.602;11.534;2022-08-01T05:48:34;10.13;;;9.52;;
33206;SDS011;19565;46.602;11.534;2022-08-01T05:51:02;10.35;;;9.75;;
33206;SDS011;19565;46.602;11.534;2022-08-01T05:53:32;11.32;;;10.38;;
33206;SDS011;19565;46.602;11.534;2022-08-01T05:56:00;9.95;;;9.35;;
33206;SDS011;19565;46.602;11.534;2022-08-01T05:58:29;11.07;;;10.38;;
33206;SDS011;19565;46.602;11.534;2022-08-01T06:00:58;11.95;;;11.35;;
33206;SDS011;19565;46.602;11.534;2022-08-01T06:03:26;12.85;;;12.15;;
33206;SDS011;19565;46.602;11.534;2022-08-01T06:05:57;12.50;;;11.80;;
33206;SDS011;19565;46.602;11.534;2022-08-01T06:08:25;12.63;;;11.93;;
33206;SDS011;19565;46.602;11.534;2022-08-01T06:10:55;13.70;;;12.75;;
33206;SDS011;19565;46.602;11.534;2022-08-01T06:13:24;10.85;;;10.25;;
33206;SDS011;19565;46.602;11.534;2022-08-01T06:15:52;14.18;;;13.38;;
33206;SDS011;19565;46.602;11.534;2022-08-01T06:18:20;14.45;;;13.65;;
33206;SDS011;19565;46.602;11.534;2022-08-01T06:20:48;15.05;;;14.15;;
33206;SDS011;19565;46.602;11.534;2022-08-01T06:23:16;15.63;;;14.82;;
33206;SDS011;19565;46.602;11.534;2022-08-01T06:25:59;17.70;;;16.80;;
33206;SDS011;19565;46.602;11.534;2022-08-01T06:28:27;16.25;;;15.27;;
33206;SDS011;19565;46.602;11.534;2022-08-01T06:30:55;17.90;;;16.90;;
33206;SDS011;19565;46.602;11.534;2022-08-01T06:33:25;16.35;;;15.55;;
33206;SDS011;19565;46.602;11.534;2022-08-01T06:35:54;24.30;;;23.15;;
33206;SDS011;19565;46.602;11.534;2022-08-01T06:38:22;23.65;;;22.55;;
33206;SDS011;19565;46.602;11.534;2022-08-01T06:40:51;33.92;;;32.42;;
33206;SDS011;19565;46.602;11.534;2022-08-01T06:43:20;30.17;;;28.80;;
33206;SDS011;19565;46.602;11.534;2022-08-01T06:45:48;29.42;;;28.02;;
33206;SDS011;19565;46.602;11.534;2022-08-01T06:48:16;30.60;;;29.20;;
33206;SDS011;19565;46.602;11.534;2022-08-01T06:50:45;33.78;;;32.28;;
33206;SDS011;19565;46.602;11.534;2022-08-01T06:53:13;31.65;;;30.23;;
33206;SDS011;19565;46.602;11.534;2022-08-01T06:55:41;37.92;;;36.22;;
33206;SDS011;19565;46.602;11.534;2022-08-01T06:58:09;24.88;;;23.67;;
33206;SDS011;19565;46.602;11.534;2022-08-01T07:00:38;48.72;;;46.60;;
33206;SDS011;19565;46.602;11.534;2022-08-01T07:03:08;50.63;;;48.22;;
33206;SDS011;19565;46.602;11.534;2022-08-01T07:05:36;45.40;;;43.40;;
33206;SDS011;19565;46.602;11.534;2022-08-01T07:08:04;56.10;;;53.80;;
33206;SDS011;19565;46.602;11.534;2022-08-01T07:10:33;52.75;;;50.45;;
33206;SDS011;19565;46.602;11.534;2022-08-01T07:13:01;60.08;;;57.55;;
33206;SDS011;19565;46.602;11.534;2022-08-01T07:15:29;46.97;;;44.95;;
33206;SDS011;19565;46.602;11.534;2022-08-01T07:17:58;54.58;;;52.20;;
33206;SDS011;19565;46.602;11.534;2022-08-01T07:20:29;51.70;;;49.50;;
33206;SDS011;19565;46.602;11.534;2022-08-01T07:23:06;56.38;;;53.97;;
33206;SDS011;19565;46.602;11.534;2022-08-01T07:25:38;56.03;;;53.63;;
33206;SDS011;19565;46.602;11.534;2022-08-01T07:28:15;56.40;;;54.00;;
33206;SDS011;19565;46.602;11.534;2022-08-01T07:30:43;47.78;;;45.67;;
33206;SDS011;19565;46.602;11.534;2022-08-01T07:33:13;45.65;;;43.58;;
33206;SDS011;19565;46.602;11.534;2022-08-01T07:35:41;48.58;;;46.47;;
33206;SDS011;19565;46.602;11.534;2022-08-01T07:38:09;49.78;;;47.67;;
33206;SDS011;19565;46.602;11.534;2022-08-01T07:40:38;51.00;;;48.83;;
33206;SDS011;19565;46.602;11.534;2022-08-01T07:43:06;57.20;;;54.80;;
33206;SDS011;19565;46.602;11.534;2022-08-01T07:45:34;50.28;;;48.17;;
33206;SDS011;19565;46.602;11.534;2022-08-01T07:48:03;56.60;;;54.20;;
33206;SDS011;19565;46.602;11.534;2022-08-01T07:50:35;54.85;;;51.97;;
33206;SDS011;19565;46.602;11.534;2022-08-01T07:53:04;54.63;;;52.33;;
33206;SDS011;19565;46.602;11.534;2022-08-01T07:55:32;55.78;;;53.45;;
33206;SDS011;19565;46.602;11.534;2022-08-01T07:58:00;53.95;;;51.65;;
33206;SDS011;19565;46.602;11.534;2022-08-01T08:00:28;50.50;;;48.30;;
33206;SDS011;19565;46.602;11.534;2022-08-01T08:02:57;49.28;;;47.10;;
33206;SDS011;19565;46.602;11.534;2022-08-01T08:05:25;51.00;;;48.80;;
33206;SDS011;19565;46.602;11.534;2022-08-01T08:08:15;56.60;;;54.17;;
33206;SDS011;19565;46.602;11.534;2022-08-01T08:10:47;51.03;;;48.88;;
33206;SDS011;19565;46.602;11.534;2022-08-01T08:13:15;54.10;;;51.80;;
33206;SDS011;19565;46.602;11.534;2022-08-01T08:15:46;54.00;;;51.70;;
33206;SDS011;19565;46.602;11.534;2022-08-01T08:18:14;53.13;;;50.60;;
33206;SDS011;19565;46.602;11.534;2022-08-01T08:20:42;51.72;;;49.53;;
33206;SDS011;19565;46.602;11.534;2022-08-01T08:23:11;56.70;;;54.25;;
33206;SDS011;19565;46.602;11.534;2022-08-01T08:26:10;57.40;;;54.85;;
33206;SDS011;19565;46.602;11.534;2022-08-01T08:28:39;53.55;;;51.25;;
33206;SDS011;19565;46.602;11.534;2022-08-01T08:31:07;56.13;;;53.78;;
33206;SDS011;19565;46.602;11.534;2022-08-01T08:33:55;57.00;;;54.60;;
33206;SDS011;19565;46.602;11.534;2022-08-01T08:36:23;54.95;;;52.58;;
33206;SDS011;19565;46.602;11.534;2022-08-01T08:38:56;57.03;;;54.47;;
33206;SDS011;19565;46.602;11.534;2022-08-01T08:41:28;57.22;;;54.78;;
33206;SDS011;19565;46.602;11.534;2022-08-01T08:44:04;56.30;;;53.90;;
33206;SDS011;19565;46.602;11.534;2022-08-01T08:46:38;58.50;;;55.92;;
33206;SDS011;19565;46.602;11.534;2022-08-01T08:49:11;56.42;;;54.03;;
33206;SDS011;19565;46.602;11.534;2022-08-01T08:51:46;57.65;;;55.25;;
33206;SDS011;19565;46.602;11.534;2022-08-01T08:54:16;62.33;;;59.72;;
33206;SDS011;19565;46.602;11.534;2022-08-01T08:56:58;58.00;;;55.22;;
33206;SDS011;19565;46.602;11.534;2022-08-01T08:59:27;60.95;;;58.45;;
33206;SDS011;19565;46.602;11.534;2022-08-01T09:01:56;54.97;;;52.67;;
33206;SDS011;19565;46.602;11.534;2022-08-01T09:04:25;51.50;;;49.33;;
33206;SDS011;19565;46.602;11.534;2022-08-01T09:06:53;54.72;;;52.38;;
33206;SDS011;19565;46.602;11.534;2022-08-01T09:09:22;59.13;;;56.47;;
33206;SDS011;19565;46.602;11.534;2022-08-01T09:11:50;55.95;;;53.35;;
33206;SDS011;19565;46.602;11.534;2022-08-01T09:14:24;53.65;;;51.35;;
33206;SDS011;19565;46.602;11.534;2022-08-01T09:17:00;54.35;;;52.05;;
33206;SDS011;19565;46.602;11.534;2022-08-01T09:19:37;55.95;;;53.65;;
33206;SDS011;19565;46.602;11.534;2022-08-01T09:22:08;54.85;;;52.55;;
33206;SDS011;19565;46.602;11.534;2022-08-01T09:24:38;54.63;;;52.33;;
33206;SDS011;19565;46.602;11.534;2022-08-01T09:27:17;58.58;;;56.17;;
33206;SDS011;19565;46.602;11.534;2022-08-01T09:29:49;57.13;;;54.63;;
33206;SDS011;19565;46.602;11.534;2022-08-01T09:32:27;54.25;;;51.95;;
33206;SDS011;19565;46.602;11.534;2022-08-01T09:38:15;55.58;;;53.17;;
33206;SDS011;19565;46.602;11.534;2022-08-01T09:40:45;55.33;;;53.03;;
33206;SDS011;19565;46.602;11.534;2022-08-01T09:43:15;54.28;;;51.97;;
33206;SDS011;19565;46.602;11.534;2022-08-01T09:45:45;59.60;;;56.55;;
33206;SDS011;19565;46.602;11.534;2022-08-01T09:48:16;59.13;;;56.58;;
33206;SDS011;19565;46.602;11.534;2022-08-01T09:50:53;56.70;;;54.30;;
33206;SDS011;19565;46.602;11.534;2022-08-01T09:53:42;58.17;;;55.67;;
33206;SDS011;19565;46.602;11.534;2022-08-01T09:56:19;59.25;;;56.70;;
33206;SDS011;19565;46.602;11.534;2022-08-01T09:58:49;62.47;;;59.83;;
33206;SDS011;19565;46.602;11.534;2022-08-01T10:01:26;63.47;;;60.70;;
33206;SDS011;19565;46.602;11.534;2022-08-01T10:04:04;62.58;;;59.88;;
33206;SDS011;19565;46.602;11.534;2022-08-01T10:06:35;62.50;;;59.80;;
33206;SDS011;19565;46.602;11.534;2022-08-01T10:09:03;64.90;;;62.15;;
33206;SDS011;19565;46.602;11.534;2022-08-01T10:11:34;62.15;;;59.47;;
33206;SDS011;19565;46.602;11.534;2022-08-01T10:14:06;64.07;;;61.38;;
33206;SDS011;19565;46.602;11.534;2022-08-01T10:16:36;62.97;;;60.28;;
33206;SDS011;19565;46.602;11.534;2022-08-01T10:19:06;66.13;;;63.33;;
33206;SDS011;19565;46.602;11.534;2022-08-01T10:21:40;56.35;;;53.95;;
33206;SDS011;19565;46.602;11.534;2022-08-01T10:24:25;55.20;;;52.90;;
33206;SDS011;19565;46.602;11.534;2022-08-01T10:26:56;57.67;;;55.25;;
33206;SDS011;19565;46.602;11.534;2022-08-01T10:29:35;57.58;;;55.13;;
33206;SDS011;19565;46.602;11.534;2022-08-01T10:32:26;58.13;;;55.65;;
33206;SDS011;19565;46.602;11.534;2022-08-01T10:34:54;54.80;;;52.50;;
33206;SDS011;19565;46.602;11.534;2022-08-01T10:37:23;57.75;;;55.33;;
33206;SDS011;19565;46.602;11.534;2022-08-01T10:39:52;58.72;;;56.22;;
33206;SDS011;19565;46.602;11.534;2022-08-01T10:42:42;57.17;;;54.55;;
33206;SDS011;19565;46.602;11.534;2022-08-01T10:45:13;58.13;;;55.72;;
33206;SDS011;19565;46.602;11.534;2022-08-01T10:47:47;58.80;;;56.30;;
33206;SDS011;19565;46.602;11.534;2022-08-01T10:50:21;56.35;;;53.95;;
33206;SDS011;19565;46.602;11.534;2022-08-01T10:53:06;58.65;;;56.15;;
33206;SDS011;19565;46.602;11.534;2022-08-01T10:55:49;61.33;;;58.72;;
33206;SDS011;19565;46.602;11.534;2022-08-01T10:58:23;70.00;;;67.07;;
33206;SDS011;19565;46.602;11.534;2022-08-01T11:03:57;51.38;;;49.17;;
33206;SDS011;19565;46.602;11.534;2022-08-01T11:06:35;53.47;;;51.17;;
33206;SDS011;19565;46.602;11.534;2022-08-01T11:09:20;54.08;;;51.88;;
33206;SDS011;19565;46.602;11.534;2022-08-01T11:12:03;53.75;;;51.55;;
33206;SDS011;19565;46.602;11.534;2022-08-01T11:17:55;57.60;;;55.20;;
33206;SDS011;19565;46.602;11.534;2022-08-01T11:20:27;59.55;;;56.97;;
33206;SDS011;19565;46.602;11.534;2022-08-01T11:29:11;56.97;;;54.58;;
33206;SDS011;19565;46.602;11.534;2022-08-01T11:31:48;55.13;;;52.83;;
33206;SDS011;19565;46.602;11.534;2022-08-01T11:34:18;57.17;;;54.78;;
33206;SDS011;19565;46.602;11.534;2022-08-01T11:36:48;54.25;;;51.95;;
33206;SDS011;19565;46.602;11.534;2022-08-01T11:39:25;55.22;;;52.83;;
33206;SDS011;19565;46.602;11.534;2022-08-01T11:41:55;54.25;;;51.95;;
33206;SDS011;19565;46.602;11.534;2022-08-01T11:44:47;62.95;;;60.35;;
33206;SDS011;19565;46.602;11.534;2022-08-01T11:47:17;52.67;;;50.28;;
33206;SDS011;19565;46.602;11.534;2022-08-01T11:49:49;54.75;;;52.45;;
33206;SDS011;19565;46.602;11.534;2022-08-01T11:52:26;52.58;;;50.38;;
33206;SDS011;19565;46.602;11.534;2022-08-01T11:54:56;54.97;;;52.67;;
33206;SDS011;19565;46.602;11.534;2022-08-01T11:57:35;51.97;;;49.78;;
33206;SDS011;19565;46.602;11.534;2022-08-01T12:00:09;59.55;;;57.03;;
33206;SDS011;19565;46.602;11.534;2022-08-01T12:02:42;57.63;;;55.22;;
33206;SDS011;19565;46.602;11.534;2022-08-01T12:05:12;60.70;;;58.20;;
33206;SDS011;19565;46.602;11.534;2022-08-01T12:07:45;61.08;;;58.38;;
33206;SDS011;19565;46.602;11.534;2022-08-01T12:10:18;60.28;;;57.75;;
33206;SDS011;19565;46.602;11.534;2022-08-01T12:12:47;61.78;;;59.17;;
33206;SDS011;19565;46.602;11.534;2022-08-01T12:15:17;63.33;;;60.72;;
33206;SDS011;19565;46.602;11.534;2022-08-01T12:17:46;62.78;;;60.17;;
33206;SDS011;19565;46.602;11.534;2022-08-01T12:20:25;58.78;;;56.28;;
33206;SDS011;19565;46.602;11.534;2022-08-01T12:22:58;65.53;;;62.72;;
33206;SDS011;19565;46.602;11.534;2022-08-01T12:25:28;60.20;;;57.70;;
33206;SDS011;19565;46.602;11.534;2022-08-01T12:27:59;60.40;;;57.58;;
33206;SDS011;19565;46.602;11.534;2022-08-01T12:30:28;59.65;;;57.15;;
33206;SDS011;19565;46.602;11.534;2022-08-01T12:32:58;61.20;;;58.60;;
33206;SDS011;19565;46.602;11.534;2022-08-01T12:35:26;58.33;;;55.78;;
33206;SDS011;19565;46.602;11.534;2022-08-01T12:37:58;60.45;;;57.95;;
33206;SDS011;19565;46.602;11.534;2022-08-01T12:40:28;55.13;;;52.78;;
33206;SDS011;19565;46.602;11.534;2022-08-01T12:42:58;54.40;;;52.10;;
33206;SDS011;19565;46.602;11.534;2022-08-01T12:45:29;52.78;;;50.53;;
33206;SDS011;19565;46.602;11.534;2022-08-01T12:48:00;57.35;;;54.75;;
33206;SDS011;19565;46.602;11.534;2022-08-01T12:50:30;60.80;;;58.20;;
33206;SDS011;19565;46.602;11.534;2022-08-01T12:53:01;57.53;;;55.13;;
33206;SDS011;19565;46.602;11.534;2022-08-01T12:55:32;60.35;;;57.85;;
33206;SDS011;19565;46.602;11.534;2022-08-01T12:58:23;63.92;;;61.22;;
33206;SDS011;19565;46.602;11.534;2022-08-01T13:01:01;59.58;;;57.08;;
33206;SDS011;19565;46.602;11.534;2022-08-01T13:03:31;58.47;;;56.08;;
33206;SDS011;19565;46.602;11.534;2022-08-01T13:05:59;56.80;;;54.40;;
33206;SDS011;19565;46.602;11.534;2022-08-01T13:08:30;58.67;;;56.17;;
33206;SDS011;19565;46.602;11.534;2022-08-01T13:11:05;50.80;;;48.70;;
33206;SDS011;19565;46.602;11.534;2022-08-01T13:13:37;74.75;;;71.35;;
33206;SDS011;19565;46.602;11.534;2022-08-01T13:16:06;50.35;;;48.25;;
33206;SDS011;19565;46.602;11.534;2022-08-01T13:18:41;60.80;;;58.20;;
33206;SDS011;19565;46.602;11.534;2022-08-01T13:21:17;52.20;;;50.00;;
33206;SDS011;19565;46.602;11.534;2022-08-01T13:26:39;52.03;;;49.83;;
33206;SDS011;19565;46.602;11.534;2022-08-01T13:29:09;51.35;;;49.17;;
33206;SDS011;19565;46.602;11.534;2022-08-01T13:31:39;49.85;;;47.75;;
33206;SDS011;19565;46.602;11.534;2022-08-01T13:34:07;53.30;;;51.10;;
33206;SDS011;19565;46.602;11.534;2022-08-01T13:36:36;54.22;;;51.65;;
33206;SDS011;19565;46.602;11.534;2022-08-01T13:39:09;45.13;;;43.20;;
33206;SDS011;19565;46.602;11.534;2022-08-01T13:41:55;48.55;;;46.50;;
33206;SDS011;19565;46.602;11.534;2022-08-01T13:44:32;50.05;;;47.95;;
33206;SDS011;19565;46.602;11.534;2022-08-01T13:47:01;55.92;;;53.63;;
33206;SDS011;19565;46.602;11.534;2022-08-01T13:49:41;54.90;;;52.58;;
33206;SDS011;19565;46.602;11.534;2022-08-01T13:52:09;57.80;;;55.40;;
33206;SDS011;19565;46.602;11.534;2022-08-01T13:54:39;55.70;;;53.40;;
33206;SDS011;19565;46.602;11.534;2022-08-01T13:57:07;50.72;;;48.63;;
33206;SDS011;19565;46.602;11.534;2022-08-01T13:59:35;51.67;;;49.47;;
33206;SDS011;19565;46.602;11.534;2022-08-01T14:02:03;48.95;;;46.88;;
33206;SDS011;19565;46.602;11.534;2022-08-01T14:04:32;46.10;;;44.17;;
33206;SDS011;19565;46.602;11.534;2022-08-01T14:07:00;52.53;;;49.92;;
33206;SDS011;19565;46.602;11.534;2022-08-01T14:09:38;50.75;;;48.65;;
33206;SDS011;19565;46.602;11.534;2022-08-01T14:12:26;50.10;;;48.00;;
33206;SDS011;19565;46.602;11.534;2022-08-01T14:14:55;54.08;;;51.88;;
33206;SDS011;19565;46.602;11.534;2022-08-01T14:17:23;46.47;;;44.45;;
33206;SDS011;19565;46.602;11.534;2022-08-01T14:19:53;53.67;;;51.38;;
33206;SDS011;19565;46.602;11.534;2022-08-01T14:22:22;49.67;;;47.60;;
33206;SDS011;19565;46.602;11.534;2022-08-01T14:24:52;50.85;;;48.75;;
33206;SDS011;19565;46.602;11.534;2022-08-01T14:27:26;50.42;;;48.22;;
33206;SDS011;19565;46.602;11.534;2022-08-01T14:29:57;48.70;;;46.60;;
33206;SDS011;19565;46.602;11.534;2022-08-01T14:32:29;55.42;;;53.05;;
33206;SDS011;19565;46.602;11.534;2022-08-01T14:34:59;54.63;;;52.33;;
33206;SDS011;19565;46.602;11.534;2022-08-01T14:37:27;52.83;;;50.63;;
33206;SDS011;19565;46.602;11.534;2022-08-01T14:40:05;51.22;;;49.03;;
33206;SDS011;19565;46.602;11.534;2022-08-01T14:42:35;56.92;;;54.53;;
33206;SDS011;19565;46.602;11.534;2022-08-01T14:45:04;55.42;;;53.08;;
33206;SDS011;19565;46.602;11.534;2022-08-01T14:47:35;51.67;;;49.47;;
33206;SDS011;19565;46.602;11.534;2022-08-01T14:50:05;52.78;;;50.47;;
33206;SDS011;19565;46.602;11.534;2022-08-01T14:52:35;46.55;;;44.58;;
33206;SDS011;19565;46.602;11.534;2022-08-01T14:55:06;50.22;;;48.10;;